In Rescue
 
Open Full Screen Window  High Contrast Mode
Wind Gusting 00 knots
06
May 25, 2022 10:58 PM EDT
Weather Information
Wind Direction
  140 °
Wind Speed
  06 kt (7 mph)
Wind Gust
  00 kt (0 mph)
Altimeter
29.96 in
Visibility
10 SM
Temperature
17° C
63° F
Dewpoint
13° C
55° F
Humidity
77%
1hr Rain Fall
00.00 in.
24hr Rain Fall
00.14 in.
Sky Condition
Scattered @ 11,000 ft
VFR

METAR KD95 260258Z AUTO 14006KT 10SM SCT110 17/13 A2996 RMK AO2 T01730130

FAA Disclaimer: The data displayed is for advisory purposes only and is not to be used for flight planning or operations.